• Join FlightAware (Why Join?)
  • Login
  • US Flag 
01:44AM EDT


 

Airport Tracker/Info


-or-


 

Live Flight TrackerFlight Track Log ✈ TGW274 ✈ 24-Jul-2013 ✈ YSSY / SYD - YCFS

Flight Track Log - Related Links

Times and Time Zones

All times are in EDT time to prevent confusion due to time zone crossing. See the TGW274 flight status page for this flight to view local times or setup timezone preferences in your user account.

Time Position Orientation Groundspeed Altitude Reporting Facility
EDT Latitude Longitude Course Direction KTS MPH feet Rate Location/Type
12:10AM -33.9410 151.1780 168° South 18 21  Level FlightAware
12:10AM -33.9430 151.1790 157° South 19 22  Level FlightAware
12:10AM -33.9440 151.1790 180° South 18 21  Level FlightAware
12:11AM -33.9470 151.1790 180° South 15 17  Level FlightAware
12:11AM -33.9490 151.1800 157° South 22 25  Level FlightAware
12:12AM -33.9510 151.1810 157° South 13 15 60 Level FlightAware
12:12AM -33.9510 151.1830 90° East 18 21 60 Level FlightAware
12:12AM -33.9500 151.1850 59° Northeast 20 23 60 Level FlightAware
12:13AM -33.9500 151.1870 90° East 21 24 60 Level FlightAware
12:13AM -33.9500 151.1880 90° East 9 10 120 Level FlightAware
12:14AM -33.9510 151.1890 140° Southeast 36 41 120 Level FlightAware
12:14AM -33.9680 151.1930 169° South 134 154 200 1,080 Climbing FlightAware
12:15AM -33.9800 151.1980 161° South 136 157 1,000 2,400 Climbing FlightAware
12:15AM -33.9840 151.2040 129° Southeast 143 165 1,400 1,920 Climbing FlightAware
12:15AM -33.9880 151.2160 112° Southeast 169 194 1,800 1,560 Climbing FlightAware
12:16AM -34.0110 151.2520 128° Southeast 221 254 2,900 2,220 Climbing FlightAware
12:16AM -34.0330 151.2730 142° Southeast 244 281 4,300 3,600 Climbing FlightAware
12:17AM -34.0580 151.2970 142° Southeast 251 289 6,200 3,420 Climbing FlightAware
12:17AM -34.0660 151.3180 115° Southeast 278 320 6,900 3,600 Climbing FlightAware
12:18AM -34.0710 151.3570 99° East 283 326 8,600 3,120 Climbing FlightAware
12:18AM -34.0670 151.4310 86° East 332 382 10,600 2,400 Climbing FlightAware
12:18AM -34.0570 151.4450 49° Northeast 347 399 10,800 1,800 Climbing FlightAware
12:19AM -34.0320 151.4630 31° Northeast 367 422 11,400 3,240 Climbing FlightAware
12:19AM -33.9805 151.4799 31° Northeast 378 435 13,300 3,000 Climbing Aus ATC (RADAR)
12:19AM -33.9650 151.4840 31° Northeast 378 435 13,400 2,280 Climbing FlightAware
12:20AM -33.8940 151.5050 14° North 398 458 15,200 2,580 Climbing FlightAware
12:21AM -33.8200 151.5310 16° North 405 466 16,900 2,760 Climbing FlightAware
12:22AM -33.6982 151.5746 16° North 424 488 20,100 2,460 Climbing Aus ATC (RADAR)
12:22AM -33.6720 151.5840 16° North 430 495 20,200 1,740 Climbing FlightAware
12:23AM -33.5940 151.6110 16° North 438 504 21,700 2,280 Climbing FlightAware
12:23AM -33.5118 151.6398 16° North 437 503 23,300 1,860 Climbing Aus ATC (RADAR)
12:23AM -33.5060 151.6420 16° North 449 517 23,100 1,320 Descending FlightAware
12:24AM -33.4280 151.6700 17° North 456 525 24,300 2,160 Climbing FlightAware
12:25AM -33.3430 151.7000 16° North 446 513 26,200 2,700 Climbing FlightAware
12:25AM -33.2640 151.7280 17° North 434 499 28,000 2,040 Climbing FlightAware
12:26AM -33.1750 151.7590 16° North 420 483 29,000 720 Climbing FlightAware
12:27AM -33.1090 151.7820 16° North 421 484 29,000  Level FlightAware
12:27AM -33.0330 151.8090 17° North 422 486 29,000  Level FlightAware
12:28AM -32.9570 151.8360 17° North 432 497 29,000  Level FlightAware
12:29AM -32.8780 151.8630 16° North 432 497 29,000 60 Level FlightAware
12:30AM -32.7950 151.8920 16° North 423 487 29,100  Climbing FlightAware
12:30AM -32.7070 151.9230 17° North 421 484 29,000 -120 Descending FlightAware
12:31AM -32.6310 151.9490 16° North 420 483 29,000  Level FlightAware
12:32AM -32.5460 151.9790 17° North 429 494 29,000  Level FlightAware
12:32AM -32.5060 151.9840 North 438 504 29,000 420 Level FlightAware
12:33AM -32.4394 151.9857 North 438 504 29,400  Climbing Aus ATC (RADAR)
12:33AM -32.4260 151.9880 North 437 503 29,000 -1,140 Descending FlightAware
12:33AM -32.3950 151.9960 12° North 423 487 29,000 120 Level FlightAware
12:33AM -32.3470 152.0320 32° Northeast 413 475 29,100  Climbing FlightAware
12:34AM -32.2950 152.0810 39° Northeast 411 473 29,000 -120 Descending FlightAware
12:35AM -32.2330 152.1370 37° Northeast 412 474 29,000 240 Level FlightAware
12:35AM -32.1850 152.1813 37° Northeast 406 467 29,300  Climbing Aus ATC (RADAR)
12:35AM -32.1740 152.1920 37° Northeast 413 475 29,000 -420 Descending FlightAware
12:36AM -32.1220 152.2400 38° Northeast 413 475 29,000 180 Level FlightAware
12:37AM -32.0571 152.2993 38° Northeast 405 466 29,300  Climbing Aus ATC (RADAR)
12:37AM -32.0490 152.3070 38° Northeast 414 476 29,000 -360 Descending FlightAware
12:38AM -31.9820 152.3690 38° Northeast 409 471 29,000  Level FlightAware
12:38AM -31.9260 152.4200 38° Northeast 417 480 29,000 -120 Level FlightAware
12:39AM -31.8453 152.4939 38° Northeast 407 468 28,900 -600 Descending Aus ATC (RADAR)
12:39AM -31.8220 152.5150 38° Northeast 415 478 28,400 -1,560 Descending FlightAware
12:40AM -31.7670 152.5660 38° Northeast 420 483 27,500 -1,560 Descending FlightAware
12:40AM -31.7157 152.6120 38° Northeast 405 466 26,600 -2,160 Descending Aus ATC (RADAR)
12:41AM -31.6780 152.6470 38° Northeast 409 471 25,500 -2,280 Descending FlightAware
12:41AM -31.6290 152.6910 37° Northeast 410 472 24,300 -2,040 Descending FlightAware
12:42AM -31.5502 152.7618 37° Northeast 395 455 22,700  Descending Aus ATC (RADAR)
12:42AM -31.5490 152.7620 37° Northeast 410 472 24,300 1,920 Climbing FlightAware
12:43AM -31.5030 152.8030 37° Northeast 410 472 24,300 -3,780 Level FlightAware
12:44AM -31.4325 152.8668 37° Northeast 388 447 20,100  Descending Aus ATC (RADAR)
12:44AM -31.4410 152.8570 37° Northeast 410 472 24,300 4,740 Climbing FlightAware
12:44AM -31.3950 152.8980 37° Northeast 410 472 24,300 -9,900 Level FlightAware
12:45AM -31.3281 152.8907 37° Northeast 403 464 18,200  Descending Aus ATC (RADAR)
12:45AM -31.3330 152.9530 37° Northeast 410 472 24,300 -1,980 Climbing FlightAware
12:46AM -31.1861 152.9233 37° Northeast 391 450 15,600 -6,300 Descending Aus ATC (RADAR)
12:47AM -31.0672 152.9514 11° North 373 429 13,400 -2,280 Descending Aus ATC (RADAR)
12:48AM -30.9719 152.9726 11° North 372 428 11,000 -1,860 Descending Aus ATC (RADAR)
12:49AM -30.8602 152.9981 11° North 321 369 9,400 -1,800 Descending Aus ATC (RADAR)
12:50AM -30.7760 153.0154 10° North 308 354 7,000 -2,400 Descending Aus ATC (RADAR)
12:52AM -30.5483 153.0660 11° North -3,120 Descending Aus ATC (Calculated)
12:53AM -30.4303 153.0916 189° South  Level Aus ATC (Calculated)
12:54AM -30.4491 153.0880 11° North  Level Estimated
12:54AM -30.4303 153.0916 11° North 300  Level Aus ATC (Calculated)
12:56AM -30.3206 153.1164 11° North  Level Estimated
12:57AM -30.3206 153.1164 348° North  Level Estimated
12:58AM -30.3206 153.1164 348° North  Level Estimated
12:59AM -30.3206 153.1164 348° North  Level Estimated
01:00AM -30.3206 153.1164 348° North  Level Estimated
01:01AM -30.3206 153.1164 348° North  Level Estimated
01:02AM -30.3206 153.1164 348° North  Level Estimated
01:03AM -30.3206 153.1164 348° North  Level Estimated
01:04AM -30.3206 153.1164 348° North  Level Estimated
01:05AM -30.3206 153.1164 348° North  Level Estimated
01:06AM -30.3206 153.1164 348° North  Level Estimated
01:07AM -30.3206 153.1164 348° North  Level Estimated
01:08AM -30.3206 153.1164 348° North  Level Estimated
01:09AM -30.3206 153.1164 348° North  Level Estimated
01:10AM -30.3206 153.1164 348° North  Level Estimated
01:11AM -30.3206 153.1164 348° North  Level Estimated
01:12AM -30.3206 153.1164 348° North  Level Estimated
01:13AM -30.3206 153.1164 348° North  Level Estimated